createdAt,value
2023-01-28T00:00:58.227Z,102408.13
2023-01-28T00:03:26.154Z,102408.19
2023-01-28T00:06:03.608Z,102402.72
2023-01-28T00:08:31.579Z,102401.97
2023-01-28T00:11:00.626Z,102400.06
2023-01-28T00:13:28.901Z,102392.09
2023-01-28T00:15:58.336Z,102403.75
2023-01-28T00:18:26.474Z,102402.88
2023-01-28T00:20:59.843Z,102393.91
2023-01-28T00:23:29.232Z,102394.91
2023-01-28T00:25:59.690Z,102392.97
2023-01-28T00:28:27.708Z,102381.28
2023-01-28T00:30:55.539Z,102378.53
2023-01-28T00:33:23.557Z,102378.53
2023-01-28T00:36:00.486Z,102381.22
2023-01-28T00:38:28.539Z,102371.44
2023-01-28T00:40:56.672Z,102380.50
2023-01-28T00:43:24.878Z,102389.56
2023-01-28T00:45:52.809Z,102381.44
2023-01-28T00:48:21.879Z,102388.69
2023-01-28T00:50:49.672Z,102386.94
2023-01-28T00:53:19.003Z,102387.72
2023-01-28T00:55:46.874Z,102392.28
2023-01-28T00:58:16.614Z,102388.63
2023-01-28T01:00:44.671Z,102384.19
2023-01-28T01:03:12.650Z,102386.84
2023-01-28T01:05:40.501Z,102387.72
2023-01-28T01:08:09.223Z,102399.53
2023-01-28T01:10:40.708Z,102402.19
2023-01-28T01:13:10.177Z,102400.41
2023-01-28T01:15:37.968Z,102398.63
2023-01-28T01:18:06.561Z,102402.31
2023-01-28T01:20:39.933Z,102395.09
2023-01-28T01:23:07.769Z,102398.00
2023-01-28T01:25:35.502Z,102385.66
2023-01-28T01:28:04.987Z,102392.78
2023-01-28T01:30:32.963Z,102395.63
2023-01-28T01:33:00.741Z,102393.09
2023-01-28T01:35:28.731Z,102390.41
2023-01-28T01:37:56.472Z,102382.53
2023-01-28T01:40:24.458Z,102384.38
2023-01-28T01:42:52.220Z,102383.47
2023-01-28T01:45:21.447Z,102382.56
2023-01-28T01:47:53.742Z,102385.31
2023-01-28T01:50:31.618Z,102394.31
2023-01-28T01:53:04.278Z,102393.53
2023-01-28T01:55:37.923Z,102396.28
2023-01-28T01:58:10.908Z,102398.00
2023-01-28T02:00:41.464Z,102398.94
2023-01-28T02:03:11.060Z,102393.50
2023-01-28T02:05:40.522Z,102407.88
2023-01-28T02:08:22.083Z,102405.16
2023-01-28T02:10:53.309Z,102410.66
2023-01-28T02:13:25.666Z,102404.25
2023-01-28T02:15:56.153Z,102406.91
2023-01-28T02:18:24.120Z,102408.72
2023-01-28T02:21:32.100Z,102410.53
2023-01-28T02:24:20.558Z,102407.81
2023-01-28T02:27:03.306Z,102412.34
2023-01-28T02:29:38.844Z,102417.81
2023-01-28T02:32:11.364Z,102413.22
2023-01-28T02:34:45.423Z,102423.28
2023-01-28T02:37:18.791Z,102424.09
2023-01-28T02:39:50.561Z,102419.56
2023-01-28T02:42:22.622Z,102422.28
2023-01-28T02:44:52.013Z,102430.34
2023-01-28T02:47:37.353Z,102430.38
2023-01-28T02:50:09.927Z,102430.34
2023-01-28T02:53:11.777Z,102425.78
2023-01-28T02:55:44.676Z,102427.63
2023-01-28T02:58:19.869Z,102432.13
2023-01-28T03:00:55.379Z,102432.94
2023-01-28T03:03:29.339Z,102433.81
2023-01-28T03:06:06.690Z,102438.25
2023-01-28T03:08:57.214Z,102437.34
2023-01-28T03:11:43.464Z,102438.25
2023-01-28T03:14:30.128Z,102438.25
2023-01-28T03:17:20.298Z,102432.84
2023-01-28T03:20:06.025Z,102426.63
2023-01-28T03:22:56.175Z,102434.63
2023-01-28T03:25:45.090Z,102436.41
2023-01-28T03:28:35.930Z,102434.59
2023-01-28T03:31:25.715Z,102437.25
2023-01-28T03:34:17.442Z,102428.25
2023-01-28T03:36:53.406Z,102439.97
2023-01-28T03:39:40.074Z,102433.69
2023-01-28T03:42:12.751Z,102429.13
2023-01-28T03:44:50.201Z,102428.25
2023-01-28T03:47:19.195Z,102440.84
2023-01-28T03:49:51.846Z,102429.09
2023-01-28T03:52:24.415Z,102436.38
2023-01-28T03:54:56.464Z,102442.69
2023-01-28T03:57:26.276Z,102441.81
2023-01-28T03:59:55.075Z,102444.47
2023-01-28T04:02:25.261Z,102447.22
2023-01-28T04:04:55.086Z,102454.38
2023-01-28T04:07:22.968Z,102446.28
2023-01-28T04:10:23.267Z,102437.34
2023-01-28T04:12:56.690Z,102437.41
2023-01-28T04:15:26.255Z,102439.16
2023-01-28T04:17:55.420Z,102447.34
2023-01-28T04:20:31.111Z,102449.16
2023-01-28T04:23:00.930Z,102447.41
2023-01-28T04:25:29.856Z,102448.28
2023-01-28T04:27:58.575Z,102457.34
2023-01-28T04:30:29.628Z,102455.56
2023-01-28T04:33:08.992Z,102459.19
2023-01-28T04:35:48.737Z,102461.06
2023-01-28T04:38:25.595Z,102470.13
2023-01-28T04:41:13.657Z,102467.44
2023-01-28T04:43:41.574Z,102472.84
2023-01-28T04:46:38.524Z,102468.41
2023-01-28T04:49:22.733Z,102474.75
2023-01-28T04:51:54.729Z,102478.28
2023-01-28T04:54:46.478Z,102477.59
2023-01-28T04:57:15.769Z,102472.16
2023-01-28T04:59:43.678Z,102470.38
2023-01-28T05:02:11.837Z,102468.59
2023-01-28T05:04:40.445Z,102462.31
2023-01-28T05:07:11.086Z,102478.47
2023-01-28T05:09:38.917Z,102469.53
2023-01-28T05:12:07.178Z,102467.72
2023-01-28T05:14:37.839Z,102474.03
2023-01-28T05:17:07.724Z,102478.50
2023-01-28T05:19:36.375Z,102471.34
2023-01-28T05:22:05.941Z,102474.97
2023-01-28T05:24:42.733Z,102477.66
2023-01-28T05:27:11.259Z,102471.41
2023-01-28T05:29:39.036Z,102472.28
2023-01-28T05:32:07.205Z,102475.97
2023-01-28T05:34:34.934Z,102471.47
2023-01-28T05:37:08.822Z,102466.13
2023-01-28T05:39:38.905Z,102469.66
2023-01-28T05:42:08.202Z,102472.44
2023-01-28T05:44:40.728Z,102478.72
2023-01-28T05:47:23.958Z,102484.19
2023-01-28T05:49:56.258Z,102480.56
2023-01-28T05:52:44.709Z,102483.22
2023-01-28T05:55:24.649Z,102494.88
2023-01-28T05:57:53.889Z,102502.00
2023-01-28T06:00:24.203Z,102505.63
2023-01-28T06:02:52.734Z,102504.66
2023-01-28T06:05:21.895Z,102505.53
2023-01-28T06:07:50.050Z,102509.13
2023-01-28T06:10:18.476Z,102510.88
2023-01-28T06:12:47.091Z,102513.56
2023-01-28T06:15:35.023Z,102517.28
2023-01-28T06:18:24.913Z,102507.34
2023-01-28T06:20:53.012Z,102513.63
2023-01-28T06:23:20.757Z,102503.72
2023-01-28T06:25:48.635Z,102507.34
2023-01-28T06:28:17.149Z,102515.47
2023-01-28T06:30:49.422Z,102517.34
2023-01-28T06:33:17.211Z,102516.69
2023-01-28T06:35:45.082Z,102516.69
2023-01-28T06:38:13.336Z,102511.34
2023-01-28T06:40:41.389Z,102507.06
2023-01-28T06:43:09.239Z,102508.84
2023-01-28T06:45:36.933Z,102512.50
2023-01-28T06:48:08.832Z,102518.84
2023-01-28T06:50:36.734Z,102517.31
2023-01-28T06:53:04.484Z,102515.50
2023-01-28T06:55:32.244Z,102522.66
2023-01-28T06:57:59.985Z,102537.09
2023-01-28T07:00:27.829Z,102527.22
2023-01-28T07:02:57.926Z,102531.69
2023-01-28T07:05:27.478Z,102523.59
2023-01-28T07:07:55.212Z,102523.59
2023-01-28T07:10:23.242Z,102522.69
2023-01-28T07:12:51.003Z,102525.38
2023-01-28T07:15:18.937Z,102508.25
2023-01-28T07:17:47.048Z,102513.63
2023-01-28T07:20:16.442Z,102511.88
2023-01-28T07:22:46.296Z,102512.81
2023-01-28T07:25:15.400Z,102510.22
2023-01-28T07:27:48.893Z,102514.78
2023-01-28T07:30:17.392Z,102514.81
2023-01-28T07:32:45.475Z,102530.22
2023-01-28T07:35:14.194Z,102529.25
2023-01-28T07:37:41.885Z,102525.66
2023-01-28T07:40:12.701Z,102531.06
2023-01-28T07:42:41.099Z,102525.81
2023-01-28T07:45:11.850Z,102521.31
2023-01-28T07:47:39.676Z,102528.50
2023-01-28T07:50:08.114Z,102529.47
2023-01-28T07:52:44.119Z,102533.03
2023-01-28T07:55:15.402Z,102546.56
2023-01-28T07:57:50.570Z,102533.03
2023-01-28T08:00:19.343Z,102522.28
2023-01-28T08:02:48.247Z,102534.13
2023-01-28T08:05:18.299Z,102529.59
2023-01-28T08:07:48.369Z,102539.53
2023-01-28T08:10:18.926Z,102544.00
2023-01-28T08:12:54.496Z,102547.56
2023-01-28T08:15:22.906Z,102555.75
2023-01-28T08:17:50.760Z,102568.28
2023-01-28T08:20:18.941Z,102567.34
2023-01-28T08:22:46.735Z,102565.50
2023-01-28T08:25:14.809Z,102573.53
2023-01-28T08:27:43.979Z,102579.00
2023-01-28T08:30:13.298Z,102587.03
2023-01-28T08:32:41.355Z,102583.41
2023-01-28T08:35:09.710Z,102583.38
2023-01-28T08:37:37.498Z,102586.97
2023-01-28T08:40:06.320Z,102586.88
2023-01-28T08:42:34.057Z,102586.88
2023-01-28T08:45:03.755Z,102588.59
2023-01-28T08:47:31.511Z,102586.81
2023-01-28T08:49:59.312Z,102584.97
2023-01-28T08:52:27.076Z,102594.91
2023-01-28T08:54:54.942Z,102596.69
2023-01-28T08:57:22.707Z,102597.63
2023-01-28T08:59:50.564Z,102601.25
2023-01-28T09:02:31.040Z,102609.50
2023-01-28T09:05:00.398Z,102612.22
2023-01-28T09:07:28.305Z,102620.34
2023-01-28T09:09:56.133Z,102619.47
2023-01-28T09:12:24.089Z,102628.59
2023-01-28T09:14:52.168Z,102640.28
2023-01-28T09:17:21.404Z,102639.38
2023-01-28T09:19:50.047Z,102636.72
2023-01-28T09:22:18.343Z,102635.84
2023-01-28T09:24:46.334Z,102644.94
2023-01-28T09:27:14.268Z,102652.09
2023-01-28T09:29:42.107Z,102649.44
2023-01-28T09:32:09.935Z,102650.38
2023-01-28T09:34:39.323Z,102650.34
2023-01-28T09:37:07.141Z,102650.28
2023-01-28T09:39:35.010Z,102651.16
2023-01-28T09:42:20.649Z,102651.03
2023-01-28T09:45:01.088Z,102651.91
2023-01-28T09:47:33.660Z,102644.63
2023-01-28T09:50:07.129Z,102640.13
2023-01-28T09:52:38.264Z,102654.38
2023-01-28T09:55:08.304Z,102666.03
2023-01-28T09:57:42.131Z,102673.16
2023-01-28T10:00:16.290Z,102665.88
2023-01-28T10:03:00.502Z,102662.25
2023-01-28T10:05:39.925Z,102666.75
2023-01-28T10:08:26.547Z,102657.69
2023-01-28T10:11:03.384Z,102659.50
2023-01-28T10:13:44.762Z,102646.91
2023-01-28T10:16:25.345Z,102656.78
2023-01-28T10:18:57.424Z,102657.78
2023-01-28T10:21:34.660Z,102646.19
2023-01-28T10:24:08.092Z,102657.91
2023-01-28T10:26:45.347Z,102652.53
2023-01-28T10:29:17.773Z,102660.63
2023-01-28T10:31:53.327Z,102648.19
2023-01-28T10:34:21.615Z,102640.84
2023-01-28T10:36:52.441Z,102644.38
2023-01-28T10:39:22.726Z,102643.41
2023-01-28T10:41:57.864Z,102637.06
2023-01-28T10:44:33.613Z,102645.97
2023-01-28T10:47:05.908Z,102642.28
2023-01-28T10:49:42.958Z,102653.94
2023-01-28T10:52:16.420Z,102641.38
2023-01-28T10:54:44.271Z,102643.25
2023-01-28T10:57:16.143Z,102651.34
2023-01-28T10:59:44.395Z,102652.19
2023-01-28T11:02:32.229Z,102651.34
2023-01-28T11:05:07.168Z,102651.34
2023-01-28T11:07:36.379Z,102657.66
2023-01-28T11:10:04.347Z,102667.66
2023-01-28T11:12:32.534Z,102651.44
2023-01-28T11:15:02.142Z,102652.28
2023-01-28T11:17:32.947Z,102661.28
2023-01-28T11:20:10.328Z,102672.09
2023-01-28T11:22:42.812Z,102677.47
2023-01-28T11:25:19.313Z,102667.50
2023-01-28T11:27:49.565Z,102668.34
2023-01-28T11:30:24.558Z,102668.25
2023-01-28T11:33:00.302Z,102664.56
2023-01-28T11:35:30.936Z,102669.94
2023-01-28T11:38:01.423Z,102666.28
2023-01-28T11:40:29.903Z,102652.75
2023-01-28T11:42:59.713Z,102663.44
2023-01-28T11:45:39.332Z,102667.88
2023-01-28T11:48:22.787Z,102656.13
2023-01-28T11:50:56.872Z,102652.19
2023-01-28T11:54:06.149Z,102648.16
2023-01-28T11:57:02.653Z,102644.50
2023-01-28T11:59:56.016Z,102648.03
2023-01-28T12:02:40.127Z,102639.13
2023-01-28T12:05:20.527Z,102639.13
2023-01-28T12:07:55.530Z,102631.94
2023-01-28T12:10:32.992Z,102639.13
2023-01-28T12:13:21.502Z,102644.50
2023-01-28T12:16:19.340Z,102646.34
2023-01-28T12:19:12.692Z,102636.53
2023-01-28T12:21:54.545Z,102643.75
2023-01-28T12:24:37.744Z,102640.97
2023-01-28T12:27:11.748Z,102634.47
2023-01-28T12:29:50.034Z,102629.44
2023-01-28T12:32:39.088Z,102624.88
2023-01-28T12:35:32.692Z,102626.63
2023-01-28T12:38:04.170Z,102623.06
2023-01-28T12:40:51.371Z,102610.34
2023-01-28T12:43:25.099Z,102594.09
2023-01-28T12:45:58.868Z,102592.19
2023-01-28T12:48:33.435Z,102587.59
2023-01-28T12:51:06.159Z,102581.25
2023-01-28T12:53:41.669Z,102579.44
2023-01-28T12:56:15.670Z,102577.59
2023-01-28T12:58:50.685Z,102566.69
2023-01-28T13:01:26.880Z,102561.28
2023-01-28T13:03:59.215Z,102572.97
2023-01-28T13:06:32.756Z,102559.47
2023-01-28T13:09:04.308Z,102527.88
2023-01-28T13:11:36.990Z,102520.66
2023-01-28T13:14:06.062Z,102512.63
2023-01-28T13:16:38.281Z,102508.03
2023-01-28T13:19:09.000Z,102504.47
2023-01-28T13:21:48.762Z,102524.22
2023-01-28T13:24:32.751Z,102536.69
2023-01-28T13:27:22.947Z,102552.84
2023-01-28T13:30:03.326Z,102552.69
2023-01-28T13:32:35.086Z,102561.63
2023-01-28T13:35:06.540Z,102559.72
2023-01-28T13:37:37.846Z,102566.81
2023-01-28T13:40:23.639Z,102564.03
2023-01-28T13:43:00.909Z,102563.94
2023-01-28T13:45:28.981Z,102558.59
2023-01-28T13:48:02.192Z,102559.31
2023-01-28T13:50:40.106Z,102571.00
2023-01-28T13:53:23.615Z,102579.03
2023-01-28T13:55:57.189Z,102591.63
2023-01-28T13:59:12.326Z,102588.00
2023-01-28T14:01:58.411Z,102585.25
2023-01-28T14:05:06.702Z,102582.59
2023-01-28T14:07:56.965Z,102577.16
2023-01-28T14:10:50.117Z,102587.09
2023-01-28T14:13:33.259Z,102581.72
2023-01-28T14:16:28.795Z,102589.81
2023-01-28T14:19:00.335Z,102594.34
2023-01-28T14:21:33.311Z,102586.19
2023-01-28T14:24:01.234Z,102598.56
2023-01-28T14:26:39.684Z,102594.44
2023-01-28T14:29:17.611Z,102584.44
2023-01-28T14:31:45.862Z,102580.00
2023-01-28T14:34:23.729Z,102574.47
2023-01-28T14:36:56.086Z,102564.59
2023-01-28T14:39:28.256Z,102556.56
2023-01-28T14:41:59.396Z,102555.66
2023-01-28T14:44:31.570Z,102546.53
2023-01-28T14:47:18.487Z,102549.25
2023-01-28T14:50:01.926Z,102543.84
2023-01-28T14:52:52.546Z,102538.47
2023-01-28T14:55:32.875Z,102529.50
2023-01-28T14:58:04.096Z,102524.13
2023-01-28T15:00:34.225Z,102525.94
2023-01-28T15:03:23.173Z,102516.94
2023-01-28T15:06:03.153Z,102521.44
2023-01-28T15:08:33.263Z,102530.47
2023-01-28T15:11:02.837Z,102530.47
2023-01-28T15:13:33.587Z,102530.50
2023-01-28T15:16:01.917Z,102546.72
2023-01-28T15:18:33.252Z,102544.91
2023-01-28T15:21:02.079Z,102551.28
2023-01-28T15:23:35.281Z,102549.44
2023-01-28T15:26:06.878Z,102553.97
2023-01-28T15:28:38.582Z,102554.88
2023-01-28T15:31:08.230Z,102556.75
2023-01-28T15:33:36.243Z,102558.59
2023-01-28T15:36:04.403Z,102560.41
2023-01-28T15:38:32.224Z,102561.34
2023-01-28T15:41:03.399Z,102564.03
2023-01-28T15:43:34.758Z,102569.50
2023-01-28T15:46:03.042Z,102565.97
2023-01-28T15:48:33.325Z,102564.19
2023-01-28T15:51:03.470Z,102575.97
2023-01-28T15:53:35.936Z,102574.19
2023-01-28T15:56:11.430Z,102575.09
2023-01-28T15:58:41.661Z,102577.88
2023-01-28T16:01:19.270Z,102583.25
2023-01-28T16:03:48.906Z,102589.66
2023-01-28T16:06:19.595Z,102598.72
2023-01-28T16:08:54.356Z,102595.13
2023-01-28T16:11:27.129Z,102595.19
2023-01-28T16:13:55.869Z,102596.25
2023-01-28T16:16:30.645Z,102599.75
2023-01-28T16:18:58.593Z,102607.13
2023-01-28T16:21:28.954Z,102600.78
2023-01-28T16:24:02.833Z,102614.31
2023-01-28T16:26:34.231Z,102626.97
2023-01-28T16:29:14.032Z,102635.09
2023-01-28T16:31:42.021Z,102642.34
2023-01-28T16:34:11.861Z,102640.50
2023-01-28T16:36:39.729Z,102636.91
2023-01-28T16:39:07.531Z,102637.84
2023-01-28T16:41:43.276Z,102638.69
2023-01-28T16:44:14.397Z,102640.53
2023-01-28T16:46:42.804Z,102638.84
2023-01-28T16:49:11.235Z,102650.56
2023-01-28T16:51:42.529Z,102646.97
2023-01-28T16:54:14.480Z,102653.31
2023-01-28T16:56:46.324Z,102658.75
2023-01-28T16:59:16.347Z,102663.28
2023-01-28T17:01:44.647Z,102664.25
2023-01-28T17:04:13.437Z,102654.38
2023-01-28T17:06:44.245Z,102646.31
2023-01-28T17:09:12.938Z,102642.75
2023-01-28T17:11:41.256Z,102635.56
2023-01-28T17:14:11.150Z,102639.22
2023-01-28T17:16:39.152Z,102640.19
2023-01-28T17:19:07.457Z,102643.81
2023-01-28T17:21:35.462Z,102630.34
2023-01-28T17:24:03.612Z,102638.47
2023-01-28T17:26:33.831Z,102644.84
2023-01-28T17:29:02.072Z,102647.59
2023-01-28T17:31:31.373Z,102630.50
2023-01-28T17:34:00.039Z,102630.56
2023-01-28T17:36:29.010Z,102633.28
2023-01-28T17:38:56.873Z,102622.59
2023-01-28T17:41:24.756Z,102622.63
2023-01-28T17:43:53.642Z,102628.06
2023-01-28T17:46:23.386Z,102626.34
2023-01-28T17:48:52.927Z,102620.97
2023-01-28T17:51:20.896Z,102633.63
2023-01-28T17:53:50.058Z,102648.06
2023-01-28T17:56:19.009Z,102642.69
2023-01-28T17:58:50.690Z,102648.16
2023-01-28T18:01:18.606Z,102664.41
2023-01-28T18:03:46.524Z,102663.56
2023-01-28T18:06:15.940Z,102671.66
2023-01-28T18:08:43.801Z,102688.84
2023-01-28T18:11:13.032Z,102687.97
2023-01-28T18:13:41.643Z,102677.22
2023-01-28T18:16:14.422Z,102685.31
2023-01-28T18:18:42.397Z,102680.03
2023-01-28T18:21:21.773Z,102687.16
2023-01-28T18:23:51.799Z,102688.16
2023-01-28T18:26:19.561Z,102682.78
2023-01-28T18:28:48.365Z,102690.00
2023-01-28T18:31:16.393Z,102711.59
2023-01-28T18:33:44.407Z,102703.53
2023-01-28T18:36:12.667Z,102700.84
2023-01-28T18:38:41.900Z,102695.44
2023-01-28T18:41:09.931Z,102687.41
2023-01-28T18:43:37.770Z,102684.75
2023-01-28T18:46:12.555Z,102694.56
2023-01-28T18:48:40.816Z,102695.56
2023-01-28T18:51:17.440Z,102703.69
2023-01-28T18:53:59.259Z,102702.81
2023-01-28T18:56:27.250Z,102709.16
2023-01-28T18:58:58.396Z,102712.75
2023-01-28T19:01:27.187Z,102711.91
2023-01-28T19:03:55.175Z,102711.97
2023-01-28T19:06:23.134Z,102719.19
2023-01-28T19:08:53.893Z,102720.13
2023-01-28T19:11:23.848Z,102726.44
2023-01-28T19:13:52.128Z,102716.63
2023-01-28T19:16:20.637Z,102712.16
2023-01-28T19:18:52.827Z,102714.88
2023-01-28T19:21:30.098Z,102705.94
2023-01-28T19:23:59.733Z,102709.59
2023-01-28T19:26:28.843Z,102716.81
2023-01-28T19:28:56.955Z,102709.66
2023-01-28T19:31:25.973Z,102705.22
2023-01-28T19:33:59.422Z,102708.78
2023-01-28T19:36:31.441Z,102714.25
2023-01-28T19:39:00.110Z,102721.50
2023-01-28T19:41:28.452Z,102717.09
2023-01-28T19:43:57.413Z,102718.03
2023-01-28T19:46:25.833Z,102723.47
2023-01-28T19:48:54.002Z,102722.59
2023-01-28T19:51:21.881Z,102719.06
2023-01-28T19:53:52.732Z,102715.50
2023-01-28T19:56:22.010Z,102717.31
2023-01-28T19:58:50.416Z,102720.09
2023-01-28T20:01:20.908Z,102731.84
2023-01-28T20:03:52.711Z,102730.97
2023-01-28T20:06:21.163Z,102731.06
2023-01-28T20:08:54.267Z,102742.69
2023-01-28T20:11:23.339Z,102738.31
2023-01-28T20:13:52.616Z,102741.03
2023-01-28T20:16:23.220Z,102731.16
2023-01-28T20:18:51.845Z,102731.22
2023-01-28T20:21:20.681Z,102729.44
2023-01-28T20:23:49.471Z,102739.34
2023-01-28T20:26:21.146Z,102733.97
2023-01-28T20:28:49.709Z,102732.22
2023-01-28T20:31:18.287Z,102728.66
2023-01-28T20:33:46.568Z,102731.38
2023-01-28T20:36:15.616Z,102726.91
2023-01-28T20:38:45.415Z,102723.31
2023-01-28T20:41:15.643Z,102714.34
2023-01-28T20:43:45.904Z,102724.25
2023-01-28T20:46:16.498Z,102722.47
2023-01-28T20:48:44.731Z,102705.47
2023-01-28T20:51:17.788Z,102709.06
2023-01-28T20:53:46.102Z,102701.31
2023-01-28T20:56:16.801Z,102699.28
2023-01-28T20:58:46.572Z,102701.91
2023-01-28T21:01:18.580Z,102696.53
2023-01-28T21:03:47.096Z,102695.72
2023-01-28T21:06:15.536Z,102699.28
2023-01-28T21:08:43.816Z,102703.81
2023-01-28T21:11:12.884Z,102697.53
2023-01-28T21:13:40.891Z,102690.38
2023-01-28T21:16:10.494Z,102693.06
2023-01-28T21:18:38.528Z,102693.16
2023-01-28T21:21:08.410Z,102691.38
2023-01-28T21:23:36.428Z,102683.34
2023-01-28T21:26:06.576Z,102686.09
2023-01-28T21:28:34.562Z,102679.84
2023-01-28T21:31:07.308Z,102675.38
2023-01-28T21:33:36.641Z,102679.06
2023-01-28T21:36:09.799Z,102676.38
2023-01-28T21:38:37.653Z,102675.50
2023-01-28T21:41:06.629Z,102667.44
2023-01-28T21:43:35.171Z,102665.66
2023-01-28T21:46:03.035Z,102663.94
2023-01-28T21:48:31.585Z,102666.66
2023-01-28T21:51:24.679Z,102675.59
2023-01-28T21:53:52.585Z,102666.72
2023-01-28T21:56:20.458Z,102664.88
2023-01-28T21:59:05.906Z,102656.81
2023-01-28T22:01:33.884Z,102665.88
2023-01-28T22:04:01.819Z,102662.31
2023-01-28T22:06:31.109Z,102667.69
2023-01-28T22:08:59.087Z,102665.94
2023-01-28T22:11:26.958Z,102664.22
2023-01-28T22:13:54.859Z,102673.22
2023-01-28T22:16:22.789Z,102678.59
2023-01-28T22:18:50.646Z,102675.94
2023-01-28T22:21:18.484Z,102683.13
2023-01-28T22:23:47.707Z,102683.13
2023-01-28T22:26:15.521Z,102686.78
2023-01-28T22:28:43.432Z,102689.47
2023-01-28T22:31:13.741Z,102686.78
2023-01-28T22:33:42.420Z,102690.41
2023-01-28T22:36:13.964Z,102685.00
2023-01-28T22:38:43.308Z,102692.19
2023-01-28T22:41:14.562Z,102699.38
2023-01-28T22:43:43.150Z,102693.13
2023-01-28T22:46:11.604Z,102703.00
2023-01-28T22:48:41.017Z,102701.28
2023-01-28T22:51:11.503Z,102698.59
2023-01-28T22:53:39.628Z,102707.59
2023-01-28T22:56:09.128Z,102686.97
2023-01-28T22:58:38.714Z,102690.63
2023-01-28T23:01:07.591Z,102688.84
2023-01-28T23:03:35.612Z,102698.75
2023-01-28T23:06:05.783Z,102693.34
2023-01-28T23:08:34.538Z,102688.91
2023-01-28T23:11:03.611Z,102689.84
2023-01-28T23:13:52.900Z,102686.28
2023-01-28T23:16:39.462Z,102688.97
2023-01-28T23:19:24.767Z,102690.81
2023-01-28T23:22:10.095Z,102681.91
2023-01-28T23:24:39.068Z,102679.19
2023-01-28T23:27:06.884Z,102681.03
2023-01-28T23:29:34.784Z,102685.50
2023-01-28T23:32:06.317Z,102676.53
2023-01-28T23:34:36.278Z,102678.34
2023-01-28T23:37:05.708Z,102675.66
2023-01-28T23:39:33.996Z,102673.94
2023-01-28T23:42:10.774Z,102669.41
2023-01-28T23:44:38.747Z,102674.84
2023-01-28T23:47:08.225Z,102670.38
2023-01-28T23:49:36.653Z,102670.38
2023-01-28T23:52:05.681Z,102658.72
2023-01-28T23:54:33.840Z,102653.38
2023-01-28T23:57:02.506Z,102653.44
2023-01-28T23:59:30.809Z,102657.94
